• Join FlightAware (Why Join?)
  • Login
  • US Flag 
02:24PM EDT


 

Airport Tracker/Info


-or-


 

Live Flight TrackerFlight Track Log ✈ DAL6232 ✈ 22-Apr-2013 ✈ CYHZ - KLGA

Flight Track Log - Related Links

Times and Time Zones

All times are in EDT time to prevent confusion due to time zone crossing. See the DAL6232 flight status page for this flight to view local times or setup timezone preferences in your user account.

Time Position Orientation Groundspeed Altitude Reporting Facility
EDT Latitude Longitude Course Direction KTS MPH feet Rate Location/Type
08:48AM 44.8667 -63.5000 19° North 140 161 800  Level Moncton Center
08:49AM 44.9000 -63.4833 20° North 150 173 3,200 2,100 Climbing Moncton Center
08:50AM 44.9500 -63.4333 35° Northeast 200 230 5,100 2,400 Climbing Moncton Center
08:51AM 44.9667 -63.5167 286° West 260 299 8,100 3,000 Climbing Moncton Center
08:52AM 44.9667 -63.6333 270° West 280 322 11,100 2,640 Climbing Moncton Center
08:53AM 44.9500 -63.7333 257° West 280 322 13,400 2,100 Climbing Moncton Center
08:54AM 44.9500 -63.8833 270° West 330 380 15,300 2,100 Climbing Moncton Center
08:55AM 44.9500 -64.0000 270° West 340 391 17,600 1,980 Climbing Moncton Center
08:56AM 44.9667 -64.1333 280° West 340 391 19,300 1,980 Climbing Moncton Center
08:57AM 44.9833 -64.2500 281° West 340 391 21,600 2,280 Climbing Moncton Center
08:58AM 45.0167 -64.4000 287° West 330 380 23,900 1,800 Climbing Moncton Center
08:59AM 45.0333 -64.5167 281° West 330 380 25,300 1,260 Climbing Moncton Center
09:00AM 45.0667 -64.6500 290° West 350 403 26,500 1,200 Climbing Moncton Center
09:01AM 45.0833 -64.7833 280° West 360 414 27,700 1,200 Climbing Moncton Center
09:02AM 45.1167 -64.9167 290° West 360 414 29,000 1,140 Climbing Moncton Center
09:03AM 45.1500 -65.0667 288° West 360 414 30,000 780 Climbing Moncton Center
09:04AM 45.1667 -65.2000 280° West 370 426 30,600 780 Climbing Moncton Center
09:05AM 45.1500 -65.3500 261° West 370 426 31,600 960 Climbing Moncton Center
09:06AM 45.1333 -65.4833 260° West 360 414 32,600 960 Climbing Moncton Center
09:07AM 45.1333 -65.6333 270° West 360 414 33,600 660 Climbing Moncton Center
09:08AM 45.1167 -65.7667 260° West 360 414 34,000 180 Climbing Moncton Center
09:09AM 45.1167 -65.9167 270° West 360 414 34,000  Level Moncton Center
09:10AM 45.1000 -66.0500 260° West 360 414 34,000  Level Moncton Center
09:11AM 45.1000 -66.2000 270° West 360 414 34,000  Level Moncton Center
09:12AM 45.0667 -66.3333 251° West 360 414 34,000  Level Moncton Center
09:13AM 45.0500 -66.4833 261° West 360 414 34,000  Level Moncton Center
09:14AM 45.0500 -66.6167 270° West 360 414 34,000  Level Moncton Center
09:15AM 45.0333 -66.7667 261° West 360 414 34,000  Level Moncton Center
09:16AM 45.0333 -66.9000 270° West 360 414 34,000  Level Moncton Center
09:17AM 45.0000 -67.0500 253° West 360 414 34,000  Level Moncton Center
09:18AM 45.0000 -67.1833 270° West 360 414 34,000  Level Moncton Center
09:19AM 44.9833 -67.3333 261° West 360 414 34,000  Level Moncton Center
09:20AM 44.9667 -67.4667 260° West 360 414 34,000  Level Moncton Center
09:21AM 44.9667 -67.6167 270° West 360 414 34,000  Level Moncton Center
09:22AM 44.9669 -67.6628 271° West 372 428 34,000  Level Boston Center
09:23AM 44.9517 -67.8050 261° West 372 428 34,000  Level Boston Center
09:23AM 44.9333 -67.9000 255° West 360 414 34,000  Level Moncton Center
09:24AM 44.9167 -68.0333 260° West 370 426 34,000  Level Moncton Center
09:25AM 44.9000 -68.1833 261° West 370 426 34,000  Level Moncton Center
09:26AM 44.9072 -68.2747 276° West 372 428 34,000  Level Boston Center
09:27AM 44.8933 -68.4167 262° West 372 428 34,000  Level Boston Center
09:28AM 44.8775 -68.5583 261° West 372 428 34,000  Level Boston Center
09:29AM 44.8614 -68.7028 261° West 372 428 34,000  Level Boston Center
09:30AM 44.8450 -68.8475 261° West 372 428 34,000  Level Boston Center
09:31AM 44.8108 -68.9550 246° West 372 428 34,000  Level Boston Center
09:32AM 44.7586 -69.0925 242° Southwest 367 422 34,000  Level Boston Center
09:33AM 44.7081 -69.2153 240° Southwest 372 428 34,000  Level Boston Center
09:34AM 44.6592 -69.3406 241° Southwest 372 428 34,000  Level Boston Center
09:35AM 44.6083 -69.4658 240° Southwest 372 428 34,000  Level Boston Center
09:36AM 44.5594 -69.5906 241° Southwest 372 428 34,000  Level Boston Center
09:37AM 44.5106 -69.7181 242° Southwest 372 428 34,000  Level Boston Center
09:38AM 44.4553 -69.8544 240° Southwest 372 428 34,000  Level Boston Center
09:39AM 44.4036 -69.9758 239° Southwest 372 428 34,000  Level Boston Center
09:40AM 44.3522 -70.1031 241° Southwest 372 428 34,000  Level Boston Center
09:41AM 44.3025 -70.2267 241° Southwest 372 428 34,000  Level Boston Center
09:42AM 44.2506 -70.3503 240° Southwest 372 428 34,000  Level Boston Center
09:43AM 44.2008 -70.4739 241° Southwest 372 428 34,000  Level Boston Center
09:44AM 44.1508 -70.5997 241° Southwest 372 428 34,000  Level Boston Center
09:46AM 44.0461 -70.8486 240° Southwest 378 435 34,000  Level Boston Center
09:47AM 43.9914 -70.9711 238° Southwest 378 435 34,000  Level Boston Center
09:48AM 43.9308 -71.1197 241° Southwest 378 435 34,000  Level Boston Center
09:49AM 43.8800 -71.2419 240° Southwest 384 442 34,000  Level Boston Center
09:50AM 43.8333 -71.3550 240° Southwest 384 442 34,000  Level Boston Center
09:51AM 43.7781 -71.4769 238° Southwest 384 442 34,000  Level Boston Center
09:52AM 43.7269 -71.6042 241° Southwest 384 442 34,000  Level Boston Center
09:53AM 43.6756 -71.7281 240° Southwest 384 442 34,000  Level Boston Center
09:54AM 43.6200 -71.8494 238° Southwest 384 442 34,000  Level Boston Center
09:55AM 43.5664 -71.9758 240° Southwest 384 442 34,000  Level Boston Center
09:56AM 43.5128 -72.1053 240° Southwest 384 442 34,000  Level Boston Center
09:57AM 43.4589 -72.2283 239° Southwest 384 442 34,000  Level Boston Center
09:58AM 43.4028 -72.3572 239° Southwest 384 442 34,000  Level Boston Center
09:59AM 43.3361 -72.5086 239° Southwest 384 442 34,000  Level Boston Center
10:00AM 43.2775 -72.6369 238° Southwest 384 442 34,000 -180 Level Boston Center
10:01AM 43.2211 -72.7650 239° Southwest 384 442 33,700 -1,020 Descending Boston Center
10:02AM 43.1644 -72.8897 238° Southwest 384 442 32,000 -1,740 Descending Boston Center
10:03AM 43.1117 -73.0117 239° Southwest 384 442 30,300 -1,800 Descending Boston Center
10:04AM 43.0547 -73.1333 237° Southwest 384 442 28,500 -1,860 Descending Boston Center
10:05AM 42.9997 -73.2606 239° Southwest 384 442 26,600 -1,980 Descending Boston Center
10:06AM 42.9406 -73.3789 236° Southwest 384 442 24,600 -1,320 Descending Boston Center
10:07AM 42.8853 -73.4997 238° Southwest 384 442 24,000 -840 Descending Boston Center
10:08AM 42.8278 -73.6319 239° Southwest 384 442 23,000 -960 Descending Boston Center
10:09AM 42.7764 -73.7356 236° Southwest 379 436 22,100 -540 Descending Boston Center
10:10AM 42.6944 -73.7989 210° Southwest 347 399 22,000 -60 Descending Boston Center
10:11AM 42.5781 -73.7708 170° South 337 388 22,000 -480 Level Boston Center
10:12AM 42.4761 -73.7519 172° South 351 404 21,100 -960 Descending Boston Center
10:13AM 42.3722 -73.7300 171° South 372 428 20,100 -900 Descending Boston Center
10:14AM 42.2892 -73.7114 171° South 377 434 19,300 -960 Descending Boston Center
10:15AM 42.1683 -73.6867 171° South 377 434 18,200 -660 Descending Boston Center
10:16AM 42.0683 -73.6817 178° South 364 419 18,000 -120 Descending Boston Center
10:17AM 41.9808 -73.6969 187° South 358 412 18,000  Level Boston Center
10:18AM 41.8722 -73.7142 187° South 366 421 18,000 -720 Level Boston Center
10:19AM 41.7867 -73.7264 186° South 361 415 16,600 -1,680 Descending Boston Center
10:20AM 41.6781 -73.7464 188° South 361 415 14,700 -1,740 Descending Boston Center
10:21AM 41.5903 -73.7614 187° South 361 415 13,200 -1,680 Descending Boston Center
10:22AM 41.5333 -73.7667 184° South 340 391 12,200 -1,800 Descending New York TRACON
10:23AM 41.4500 -73.7833 189° South 324 373 10,500 -1,500 Descending New York TRACON
10:24AM 41.3667 -73.8000 189° South 273 314 9,300 -780 Descending New York TRACON
10:25AM 41.3000 -73.7500 151° Southeast 265 305 9,000 -300 Descending New York TRACON
10:26AM 41.2333 -73.7000 151° Southeast 234 269 8,700 -720 Descending New York TRACON
10:27AM 41.2000 -73.6667 143° Southeast 198 228 7,600 -1,200 Descending New York TRACON
10:28AM 41.1500 -73.6333 153° Southeast 183 211 6,300 -1,260 Descending New York TRACON
10:29AM 41.1167 -73.6000 143° Southeast 188 216 5,100 -1,140 Descending New York TRACON
10:30AM 41.0667 -73.6333 207° Southwest 202 232 4,100 -600 Descending New York TRACON
10:31AM 41.0167 -73.6833 217° Southwest 203 234 4,000 -60 Descending New York TRACON
10:32AM 40.9833 -73.7333 229° Southwest 209 241 4,000  Level New York TRACON
10:33AM 40.9667 -73.8000 252° West 208 239 4,100  Climbing New York TRACON
10:34AM 40.9333 -73.8500 229° Southwest 194 223 4,100 -60 Level New York TRACON
10:35AM 40.8833 -73.8833 207° Southwest 191 220 4,000 -60 Descending New York TRACON
10:36AM 40.8333 -73.9167 207° Southwest 187 215 4,000  Level New York TRACON
10:37AM 40.7833 -73.9667 217° Southwest 190 219 4,000 -300 Level New York TRACON
10:38AM 40.7500 -74.0000 217° Southwest 192 221 3,500 -480 Descending New York TRACON
10:39AM 40.7000 -74.0333 207° Southwest 194 223 3,100 -240 Descending New York TRACON
10:40AM 40.6500 -74.0667 207° Southwest 196 226 3,100 -60 Level New York TRACON
10:41AM 40.6000 -74.1000 207° Southwest 201 231 3,000 -120 Descending New York TRACON